Time;durP1;ratioP1;P1;durP2;ratioP2;P2;SDS_P1;SDS_P2;PMS_P1;PMS_P2;Temp;Humidity;BMP_temperature;BMP_pressure;BME280_temperature;BME280_humidity;BME280_pressure;Samples;Min_cycle;Max_cycle;Signal;HPM_P1;HPM_P2
2022/07/09 00:00:01;;;;;;;8.93;1.42;;;22.70;71.20;;;;;;4878472;29;20042;-84
2022/07/09 00:02:26;;;;;;;3.45;1.00;;;22.60;71.70;;;;;;4878298;29;20040;-84
2022/07/09 00:04:52;;;;;;;3.15;1.15;;;22.60;71.50;;;;;;4882788;29;20057;-84
2022/07/09 00:07:18;;;;;;;2.05;1.00;;;22.60;71.50;;;;;;4895841;29;20389;-84
2022/07/09 00:09:43;;;;;;;3.45;0.93;;;22.50;71.70;;;;;;4896686;29;20032;-84
2022/07/09 00:12:09;;;;;;;2.40;1.05;;;22.40;72.10;;;;;;4896686;29;20027;-84
2022/07/09 00:14:35;;;;;;;3.60;0.95;;;22.40;72.40;;;;;;4884638;29;20470;-84
2022/07/09 00:17:01;;;;;;;2.88;0.93;;;22.30;73.10;;;;;;4878036;29;20112;-84
2022/07/09 00:19:26;;;;;;;3.95;1.25;;;22.30;72.70;;;;;;4876892;29;20112;-84
2022/07/09 00:21:52;;;;;;;2.55;1.10;;;22.30;73.20;;;;;;4890941;29;20037;-83
2022/07/09 00:24:18;;;;;;;5.80;1.15;;;22.20;73.40;;;;;;4895710;29;20072;-84
2022/07/09 00:26:44;;;;;;;2.10;0.90;;;22.20;73.30;;;;;;4897088;29;20255;-84
2022/07/09 00:29:09;;;;;;;4.38;1.20;;;22.10;73.80;;;;;;4896472;29;20035;-84
2022/07/09 00:31:35;;;;;;;4.85;1.20;;;22.20;74.20;;;;;;4880941;29;20021;-84
2022/07/09 00:34:01;;;;;;;6.30;0.90;;;22.10;74.10;;;;;;4876628;29;20393;-84
2022/07/09 00:36:27;;;;;;;3.70;1.20;;;22.00;75.20;;;;;;4877754;29;20033;-84
2022/07/09 00:38:52;;;;;;;2.92;0.93;;;21.90;74.40;;;;;;4888759;29;20545;-83
2022/07/09 00:41:18;;;;;;;1.98;1.10;;;22.00;75.30;;;;;;4894857;29;20037;-83
2022/07/09 00:43:48;;;;;;;1.65;0.82;;;22.00;75.40;;;;;;4879279;29;20037;-84
2022/07/09 00:46:14;;;;;;;4.82;1.00;;;21.70;75.70;;;;;;4897389;29;20029;-84
2022/07/09 00:48:40;;;;;;;2.10;1.13;;;21.80;75.90;;;;;;4899333;29;20024;-84
2022/07/09 00:51:06;;;;;;;5.25;1.23;;;21.70;76.60;;;;;;4899766;29;20032;-84
2022/07/09 00:53:32;;;;;;;3.75;1.08;;;21.60;76.80;;;;;;4898470;29;20118;-84
2022/07/09 00:55:58;;;;;;;4.50;1.00;;;21.60;76.50;;;;;;4900099;29;20036;-84
2022/07/09 00:58:24;;;;;;;8.57;1.55;;;21.50;77.10;;;;;;4897392;29;20024;-84
2022/07/09 01:00:50;;;;;;;4.55;1.25;;;21.60;77.20;;;;;;4880779;29;20025;-83
2022/07/09 01:03:15;;;;;;;2.15;1.10;;;21.50;77.80;;;;;;4881465;29;20033;-83
2022/07/09 01:05:41;;;;;;;4.05;1.25;;;21.50;76.90;;;;;;4883881;29;20059;-84
2022/07/09 01:08:08;;;;;;;7.18;1.20;;;21.50;77.10;;;;;;4882369;29;20049;-84
2022/07/09 01:10:35;;;;;;;4.90;0.90;;;21.50;77.40;;;;;;4891670;29;20060;-84
2022/07/09 01:13:02;;;;;;;2.92;1.10;;;21.60;77.40;;;;;;4899320;29;20028;-83
2022/07/09 01:15:28;;;;;;;1.95;0.90;;;21.60;77.20;;;;;;4898268;29;20084;-84
2022/07/09 01:17:55;;;;;;;1.98;0.95;;;21.50;77.70;;;;;;4899287;29;20037;-83
2022/07/09 01:20:25;;;;;;;3.25;1.00;;;21.50;77.70;;;;;;4899185;29;20063;-83
2022/07/09 01:22:52;;;;;;;1.60;0.77;;;21.50;77.30;;;;;;4898937;29;20041;-83
2022/07/09 01:25:19;;;;;;;2.05;1.08;;;21.50;77.60;;;;;;4898147;29;20025;-83
2022/07/09 01:27:45;;;;;;;6.72;1.05;;;21.40;77.70;;;;;;4884111;29;20028;-84
2022/07/09 01:30:22;;;;;;;3.42;1.02;;;21.50;77.80;;;;;;4899116;29;20028;-83
2022/07/09 01:32:48;;;;;;;4.53;1.00;;;21.40;78.10;;;;;;4898940;29;20389;-83
2022/07/09 01:35:14;;;;;;;2.88;0.90;;;21.30;78.80;;;;;;4898688;29;20021;-83
2022/07/09 01:37:39;;;;;;;4.65;1.42;;;21.30;78.90;;;;;;4899168;29;20517;-83
2022/07/09 01:40:06;;;;;;;1.67;0.77;;;21.20;79.40;;;;;;4899630;29;20025;-83
2022/07/09 01:42:31;;;;;;;6.65;1.02;;;21.20;79.70;;;;;;4891740;29;20051;-83
2022/07/09 01:44:57;;;;;;;3.40;1.00;;;21.20;79.70;;;;;;4898172;29;20560;-83
2022/07/09 01:47:23;;;;;;;5.43;1.65;;;21.20;79.60;;;;;;4898880;29;20571;-83
2022/07/09 01:49:48;;;;;;;4.78;1.23;;;21.20;79.90;;;;;;4898774;29;20027;-84
2022/07/09 01:52:14;;;;;;;2.80;1.00;;;21.10;80.20;;;;;;4899188;29;20040;-84
2022/07/09 01:54:40;;;;;;;1.77;0.95;;;21.10;80.60;;;;;;4898018;29;20021;-83
2022/07/09 01:57:06;;;;;;;2.90;1.30;;;21.00;81.00;;;;;;4898258;29;20029;-83
2022/07/09 01:59:31;;;;;;;5.28;1.30;;;21.00;81.20;;;;;;4891719;29;20112;-84
2022/07/09 02:01:57;;;;;;;3.42;1.17;;;21.00;82.10;;;;;;4890935;29;20035;-84
2022/07/09 02:04:23;;;;;;;5.22;1.10;;;21.00;82.20;;;;;;4891312;29;20025;-83
2022/07/09 02:06:48;;;;;;;3.95;1.40;;;20.90;82.30;;;;;;4898246;29;20532;-83
2022/07/09 02:09:14;;;;;;;4.65;1.60;;;21.00;83.00;;;;;;4898404;29;20035;-83
2022/07/09 02:11:40;;;;;;;8.93;1.27;;;20.70;83.90;;;;;;4897507;29;20493;-83
2022/07/09 02:14:05;;;;;;;2.33;1.10;;;20.80;84.40;;;;;;4898479;29;20035;-83
2022/07/09 02:16:31;;;;;;;7.30;1.85;;;20.80;85.00;;;;;;4898379;29;20040;-83
2022/07/09 02:18:57;;;;;;;7.03;1.40;;;20.80;85.30;;;;;;4895560;29;20035;-84
2022/07/09 02:21:22;;;;;;;3.22;1.40;;;20.80;84.70;;;;;;4880065;29;20069;-84
2022/07/09 02:23:48;;;;;;;8.50;1.35;;;20.70;85.00;;;;;;4879468;29;20043;-84
2022/07/09 02:26:14;;;;;;;3.58;1.10;;;20.70;85.40;;;;;;4885261;29;20123;-84
2022/07/09 02:28:41;;;;;;;4.50;1.20;;;20.80;85.40;;;;;;4879516;29;20418;-84
2022/07/09 02:31:07;;;;;;;6.85;1.35;;;20.70;85.70;;;;;;4895937;29;20385;-83
2022/07/09 02:33:33;;;;;;;4.20;1.40;;;20.70;86.30;;;;;;4897993;29;20031;-84
2022/07/09 02:35:58;;;;;;;2.47;1.23;;;20.60;86.80;;;;;;4897928;29;20123;-84
2022/07/09 02:38:24;;;;;;;4.28;1.35;;;20.40;88.60;;;;;;4887922;29;20061;-83
2022/07/09 02:40:50;;;;;;;5.72;1.50;;;20.40;89.60;;;;;;4883778;29;20037;-83
2022/07/09 02:43:15;;;;;;;9.10;1.85;;;20.20;90.40;;;;;;4898034;29;20513;-83
2022/07/09 02:45:42;;;;;;;5.45;1.35;;;20.20;90.40;;;;;;4897558;29;20033;-84
2022/07/09 02:48:08;;;;;;;3.55;1.55;;;20.20;91.00;;;;;;4897704;29;20025;-83
2022/07/09 02:50:33;;;;;;;4.68;1.73;;;19.80;92.10;;;;;;4897500;29;20028;-84
2022/07/09 02:53:00;;;;;;;9.38;1.50;;;20.00;92.00;;;;;;4897521;29;20023;-84
2022/07/09 02:55:25;;;;;;;4.65;1.55;;;19.90;92.20;;;;;;4882031;29;20021;-83
2022/07/09 02:57:51;;;;;;;5.55;1.52;;;19.80;92.50;;;;;;4897254;29;20035;-83
2022/07/09 03:00:17;;;;;;;6.82;1.52;;;19.60;92.90;;;;;;4897941;29;20103;-84
2022/07/09 03:02:42;;;;;;;4.57;1.52;;;19.60;93.10;;;;;;4897250;29;20049;-83
2022/07/09 03:05:08;;;;;;;5.15;1.42;;;19.70;92.90;;;;;;4883784;29;20053;-83
2022/07/09 03:07:34;;;;;;;5.38;1.70;;;19.60;92.90;;;;;;4885477;29;20085;-83
2022/07/09 03:10:00;;;;;;;3.88;1.60;;;19.30;93.40;;;;;;4897562;29;20430;-84
2022/07/09 03:12:25;;;;;;;2.17;1.30;;;19.40;93.90;;;;;;4896694;29;20584;-84
2022/07/09 03:14:51;;;;;;;4.88;1.88;;;19.40;93.80;;;;;;4879123;29;20025;-83
2022/07/09 03:17:17;;;;;;;6.93;1.50;;;19.60;93.60;;;;;;4878862;29;20033;-84
2022/07/09 03:19:42;;;;;;;3.17;1.45;;;19.70;93.20;;;;;;4879111;29;20037;-84
2022/07/09 03:22:08;;;;;;;8.25;1.55;;;19.60;93.00;;;;;;4882750;29;20111;-84
2022/07/09 03:24:33;;;;;;;8.73;1.50;;;19.70;93.00;;;;;;4887281;29;20060;-84
2022/07/09 03:26:59;;;;;;;5.28;1.50;;;19.60;93.10;;;;;;4889531;29;20032;-84
2022/07/09 03:29:25;;;;;;;4.25;1.50;;;19.50;92.90;;;;;;4896891;29;20080;-84
2022/07/09 03:31:50;;;;;;;8.25;1.70;;;19.60;92.80;;;;;;4895474;29;20039;-83
2022/07/09 03:34:16;;;;;;;4.00;1.60;;;19.60;93.00;;;;;;4897093;29;20025;-84
2022/07/09 03:36:42;;;;;;;6.00;1.30;;;19.40;93.50;;;;;;4897205;29;20032;-84
2022/07/09 03:39:08;;;;;;;3.50;1.42;;;19.50;93.40;;;;;;4896786;29;20028;-83
2022/07/09 03:41:33;;;;;;;2.42;1.25;;;19.50;93.40;;;;;;4896261;29;20500;-83
2022/07/09 03:43:59;;;;;;;2.40;1.42;;;19.40;93.90;;;;;;4896346;29;20043;-83
2022/07/09 03:46:25;;;;;;;6.32;1.50;;;19.40;93.40;;;;;;4895597;29;20064;-84
2022/07/09 03:48:51;;;;;;;3.72;1.50;;;19.40;93.30;;;;;;4896446;29;20029;-84
2022/07/09 03:51:16;;;;;;;3.78;1.20;;;19.50;93.10;;;;;;4896623;29;20058;-84
2022/07/09 03:53:42;;;;;;;6.00;1.30;;;19.50;93.10;;;;;;4883352;29;20037;-84
2022/07/09 03:56:08;;;;;;;4.50;1.55;;;19.50;93.10;;;;;;4877726;29;20032;-83
2022/07/09 03:58:33;;;;;;;4.65;1.15;;;19.40;93.30;;;;;;4895672;29;20029;-83
2022/07/09 04:00:59;;;;;;;2.53;1.23;;;19.30;93.40;;;;;;4895535;29;20039;-83
2022/07/09 04:03:25;;;;;;;4.25;1.17;;;19.20;93.70;;;;;;4879545;29;20032;-83
2022/07/09 04:05:50;;;;;;;3.95;1.40;;;19.20;93.60;;;;;;4877655;29;20056;-83
2022/07/09 04:08:16;;;;;;;4.30;1.10;;;19.20;93.60;;;;;;4879621;29;20031;-84
2022/07/09 04:10:42;;;;;;;4.88;1.40;;;19.10;93.90;;;;;;4888817;29;20450;-84
2022/07/09 04:13:07;;;;;;;3.47;1.52;;;19.10;94.00;;;;;;4877933;29;20497;-83
2022/07/09 04:15:33;;;;;;;2.95;1.55;;;19.00;94.10;;;;;;4895512;29;20047;-83
2022/07/09 04:17:59;;;;;;;5.30;1.40;;;18.90;94.30;;;;;;4896240;29;20021;-83
2022/07/09 04:20:25;;;;;;;6.75;1.23;;;18.90;94.40;;;;;;4896474;29;20028;-84
2022/07/09 04:22:51;;;;;;;8.20;2.25;;;18.90;94.40;;;;;;4882249;29;20439;-84
2022/07/09 04:25:17;;;;;;;5.78;1.42;;;18.80;94.60;;;;;;4881411;29;20396;-84
2022/07/09 04:27:43;;;;;;;2.10;1.00;;;18.90;94.70;;;;;;4884747;29;20028;-84
2022/07/09 04:30:10;;;;;;;1.88;1.35;;;18.90;94.70;;;;;;4899437;29;20405;-83
2022/07/09 04:32:36;;;;;;;8.93;1.40;;;18.90;94.90;;;;;;4900347;29;20438;-84
2022/07/09 04:35:03;;;;;;;2.78;1.02;;;18.90;94.70;;;;;;4898654;29;20453;-84
2022/07/09 04:37:28;;;;;;;5.15;1.52;;;19.00;94.60;;;;;;4893378;29;20077;-83
2022/07/09 04:39:54;;;;;;;3.47;1.48;;;18.90;94.60;;;;;;4881188;29;20060;-83
2022/07/09 04:42:20;;;;;;;2.42;1.20;;;18.70;94.70;;;;;;4881722;29;20033;-83
2022/07/09 04:44:46;;;;;;;8.43;1.50;;;18.80;94.80;;;;;;4895852;29;20025;-84
2022/07/09 04:47:12;;;;;;;6.22;1.40;;;18.80;94.70;;;;;;4899088;29;20406;-83
2022/07/09 04:49:38;;;;;;;3.70;1.10;;;18.80;94.70;;;;;;4888826;29;20029;-83
2022/07/09 04:52:04;;;;;;;3.15;1.08;;;18.70;94.80;;;;;;4898297;29;20107;-84
2022/07/09 04:54:30;;;;;;;4.90;1.70;;;18.70;94.80;;;;;;4898793;29;20141;-84
2022/07/09 04:56:56;;;;;;;3.38;1.30;;;18.90;94.60;;;;;;4898663;29;20123;-84
2022/07/09 04:59:21;;;;;;;4.65;1.40;;;18.80;95.00;;;;;;4899722;29;20025;-83
2022/07/09 05:01:48;;;;;;;3.70;1.30;;;18.70;94.80;;;;;;4897991;29;20039;-84
2022/07/09 05:04:13;;;;;;;6.05;1.85;;;18.80;95.10;;;;;;4893194;29;20435;-84
2022/07/09 05:06:40;;;;;;;5.03;1.48;;;18.80;94.80;;;;;;4899437;29;20047;-83
2022/07/09 05:09:05;;;;;;;3.53;1.30;;;18.60;95.40;;;;;;4898799;29;20016;-82
2022/07/09 05:11:32;;;;;;;6.00;1.52;;;18.70;95.70;;;;;;4899608;29;20036;-82
2022/07/09 05:13:58;;;;;;;5.05;1.77;;;18.70;95.40;;;;;;4898739;29;20053;-80
2022/07/09 05:16:23;;;;;;;3.75;1.55;;;18.80;95.40;;;;;;4899487;29;20033;-79
2022/07/09 05:18:49;;;;;;;5.30;1.90;;;18.80;95.10;;;;;;4899250;29;20072;-81
2022/07/09 05:21:15;;;;;;;4.30;1.67;;;18.70;95.80;;;;;;4884431;29;20409;-80
2022/07/09 05:23:40;;;;;;;3.65;1.38;;;18.80;95.80;;;;;;4898730;29;20092;-75
2022/07/09 05:26:06;;;;;;;4.93;1.70;;;18.70;96.10;;;;;;4892420;29;20061;-75
2022/07/09 05:28:32;;;;;;;2.42;1.25;;;18.70;96.00;;;;;;4899044;29;20052;-74
2022/07/09 05:30:58;;;;;;;2.63;1.60;;;18.60;96.40;;;;;;4899145;29;20382;-74
2022/07/09 05:33:24;;;;;;;7.10;1.77;;;18.50;97.00;;;;;;4899445;29;20028;-74
2022/07/09 05:35:49;;;;;;;5.03;1.98;;;18.70;97.10;;;;;;4898825;29;20028;-74
2022/07/09 05:38:16;;;;;;;7.07;1.70;;;18.60;97.30;;;;;;4898523;29;20025;-75
2022/07/09 05:40:41;;;;;;;5.95;1.50;;;18.60;97.80;;;;;;4898657;29;20096;-74
2022/07/09 05:43:07;;;;;;;4.35;1.95;;;18.70;98.00;;;;;;4898147;29;20145;-74
2022/07/09 05:45:32;;;;;;;4.68;1.80;;;18.80;97.70;;;;;;4899075;29;20401;-74
2022/07/09 05:47:58;;;;;;;5.97;1.58;;;18.70;97.80;;;;;;4884732;29;20029;-78
2022/07/09 05:50:24;;;;;;;4.95;1.77;;;18.80;98.20;;;;;;4884576;29;20024;-76
2022/07/09 05:52:49;;;;;;;8.18;1.90;;;18.90;97.90;;;;;;4897989;29;20561;-76
2022/07/09 05:55:16;;;;;;;4.35;1.77;;;18.90;97.90;;;;;;4898297;29;20024;-80
2022/07/09 05:57:42;;;;;;;7.93;1.75;;;19.00;98.20;;;;;;4891803;29;20037;-80
2022/07/09 06:00:08;;;;;;;9.48;1.83;;;19.10;98.20;;;;;;4898893;29;20039;-76
2022/07/09 06:02:34;;;;;;;6.13;2.53;;;19.00;98.40;;;;;;4898303;29;20465;-76
2022/07/09 06:04:59;;;;;;;9.82;2.60;;;19.10;98.30;;;;;;4885699;29;20053;-76
2022/07/09 06:07:25;;;;;;;6.68;2.60;;;19.10;98.40;;;;;;4882382;29;20057;-75
2022/07/09 06:09:51;;;;;;;3.70;2.00;;;19.10;98.60;;;;;;4898348;29;20024;-76
2022/07/09 06:12:16;;;;;;;7.88;2.50;;;19.10;99.10;;;;;;4897776;29;20504;-75
2022/07/09 06:14:42;;;;;;;5.63;2.13;;;19.20;98.90;;;;;;4898181;29;20067;-75
2022/07/09 06:17:07;;;;;;;6.32;2.35;;;19.20;99.20;;;;;;4898452;29;20108;-75
2022/07/09 06:19:34;;;;;;;9.05;2.03;;;19.00;99.70;;;;;;4898145;29;20064;-76
2022/07/09 06:21:59;;;;;;;8.30;2.60;;;19.20;99.40;;;;;;4890499;29;20060;-75
2022/07/09 06:24:25;;;;;;;9.27;2.80;;;19.10;99.90;;;;;;4892095;29;20040;-75
2022/07/09 06:26:51;;;;;;;3.90;2.30;;;19.20;99.90;;;;;;4891844;29;20108;-76
2022/07/09 06:29:16;;;;;;;6.35;2.50;;;19.20;99.90;;;;;;4891234;29;20042;-76
2022/07/09 06:31:42;;;;;;;4.93;2.47;;;19.30;99.90;;;;;;4885113;29;20033;-78
2022/07/09 06:34:10;;;;;;;5.47;2.28;;;19.30;99.90;;;;;;4879759;29;20077;-83
2022/07/09 06:36:35;;;;;;;11.90;2.65;;;19.30;99.90;;;;;;4880059;29;20061;-81
2022/07/09 06:41:46;;;;;;;9.30;2.58;;;19.50;99.20;;;;;;4896653;29;20555;-77
2022/07/09 06:44:11;;;;;;;9.88;2.30;;;19.70;98.50;;;;;;4895022;29;20067;-76
2022/07/09 06:46:38;;;;;;;7.90;2.17;;;19.80;98.00;;;;;;4885625;29;20028;-78
2022/07/09 06:49:04;;;;;;;4.22;1.88;;;20.00;97.40;;;;;;4896511;29;20025;-79
2022/07/09 06:51:30;;;;;;;10.15;2.08;;;20.10;97.20;;;;;;4897464;29;20374;-81
2022/07/09 06:53:55;;;;;;;7.38;2.03;;;20.20;96.80;;;;;;4898403;29;20024;-87
2022/07/09 06:56:22;;;;;;;4.40;1.80;;;20.20;96.50;;;;;;4898593;29;20032;-80
2022/07/09 06:58:48;;;;;;;7.07;1.60;;;20.20;97.00;;;;;;4894506;29;20036;-81
2022/07/09 07:01:14;;;;;;;13.43;2.70;;;20.40;96.50;;;;;;4898194;29;20064;-78
2022/07/09 07:03:39;;;;;;;8.00;1.88;;;20.50;95.80;;;;;;4897752;29;20125;-79
2022/07/09 07:06:05;;;;;;;12.07;2.00;;;20.60;95.20;;;;;;4882858;29;20553;-81
2022/07/09 07:08:30;;;;;;;9.48;2.40;;;20.50;95.50;;;;;;4879444;29;20025;-82
2022/07/09 07:10:56;;;;;;;5.50;2.17;;;20.50;96.00;;;;;;4879352;29;20025;-74
2022/07/09 07:13:22;;;;;;;6.95;2.00;;;20.50;96.00;;;;;;4884016;29;20032;-75
2022/07/09 07:15:49;;;;;;;5.25;1.77;;;20.50;95.30;;;;;;4896521;29;20024;-80
2022/07/09 07:18:16;;;;;;;7.15;2.40;;;20.60;95.20;;;;;;4897174;29;20020;-80
2022/07/09 07:20:45;;;;;;;7.13;1.60;;;20.70;95.00;;;;;;4896838;29;20039;-81
2022/07/09 07:23:11;;;;;;;3.60;1.83;;;20.70;94.60;;;;;;4896065;29;20032;-80
2022/07/09 07:25:37;;;;;;;5.40;2.00;;;20.80;94.60;;;;;;4890281;29;20508;-82
2022/07/09 07:28:04;;;;;;;4.22;1.70;;;20.90;94.70;;;;;;4887827;29;20029;-81
2022/07/09 07:30:32;;;;;;;5.82;1.98;;;20.80;94.30;;;;;;4878936;29;20052;-83
2022/07/09 07:32:58;;;;;;;6.70;1.92;;;21.00;94.10;;;;;;4878199;29;20025;-81
2022/07/09 07:35:24;;;;;;;6.57;2.25;;;21.00;94.10;;;;;;4878544;29;20044;-81
2022/07/09 07:37:50;;;;;;;6.80;1.80;;;21.00;94.30;;;;;;4878751;29;20482;-78
2022/07/09 07:40:15;;;;;;;6.03;1.90;;;21.20;93.80;;;;;;4882946;29;20478;-80
2022/07/09 07:42:41;;;;;;;4.53;1.52;;;21.20;94.40;;;;;;4896705;29;20033;-80
2022/07/09 07:45:07;;;;;;;5.38;1.90;;;21.20;94.50;;;;;;4897421;29;20043;-79
2022/07/09 07:47:33;;;;;;;7.32;2.30;;;21.20;94.40;;;;;;4896638;29;20020;-80
2022/07/09 07:49:59;;;;;;;6.45;2.47;;;21.30;94.50;;;;;;4895556;29;20080;-80
2022/07/09 07:52:25;;;;;;;4.32;2.10;;;21.30;94.50;;;;;;4896787;29;20088;-79
2022/07/09 07:54:51;;;;;;;9.82;2.30;;;21.40;93.90;;;;;;4896294;29;20024;-79
2022/07/09 07:57:16;;;;;;;6.93;1.73;;;21.60;93.00;;;;;;4897189;29;20053;-77
2022/07/09 07:59:42;;;;;;;6.63;1.90;;;21.60;92.80;;;;;;4896339;29;20039;-75
2022/07/09 08:02:08;;;;;;;6.75;1.95;;;21.70;92.50;;;;;;4885730;29;20033;-75
2022/07/09 08:04:33;;;;;;;9.15;2.05;;;21.80;92.40;;;;;;4886942;29;20041;-75
2022/07/09 08:06:59;;;;;;;6.88;2.40;;;21.90;92.40;;;;;;4881987;29;20040;-81
2022/07/09 08:09:24;;;;;;;4.93;1.70;;;21.90;91.60;;;;;;4884919;29;20032;-81
2022/07/09 08:11:50;;;;;;;8.82;1.85;;;21.90;91.70;;;;;;4877836;29;20031;-80
2022/07/09 08:14:16;;;;;;;4.05;1.38;;;22.20;91.40;;;;;;4879181;29;20029;-80
2022/07/09 08:16:41;;;;;;;6.30;1.63;;;22.30;91.00;;;;;;4892984;29;20172;-79
2022/07/09 08:57:57;;;;;;;13.32;1.90;;;26.00;74.90;;;;;;5496316;23;20058;-74
2022/07/09 09:00:23;;;;;;;6.00;1.70;;;26.00;74.10;;;;;;4915054;29;20028;-74
2022/07/09 09:02:48;;;;;;;4.53;1.30;;;26.10;74.60;;;;;;4914516;29;20032;-74
2022/07/09 09:05:15;;;;;;;8.05;1.75;;;26.40;73.80;;;;;;4916140;29;20028;-74
2022/07/09 09:07:41;;;;;;;7.53;1.88;;;26.70;73.60;;;;;;4918067;29;20036;-74
2022/07/09 09:10:08;;;;;;;8.85;1.35;;;27.20;72.60;;;;;;4918547;29;20079;-74
2022/07/09 09:12:34;;;;;;;4.88;1.83;;;27.30;69.00;;;;;;4918125;29;20032;-74
2022/07/09 09:15:03;;;;;;;4.50;2.20;;;27.50;69.80;;;;;;4918063;29;20076;-74
2022/07/09 09:17:30;;;;;;;6.03;1.73;;;27.50;67.60;;;;;;4919056;29;20039;-74
2022/07/09 09:19:55;;;;;;;4.22;1.77;;;27.40;67.10;;;;;;4918899;29;20388;-74
2022/07/09 09:22:22;;;;;;;5.43;1.58;;;27.90;67.10;;;;;;4919415;29;20036;-74
2022/07/09 09:24:51;;;;;;;4.97;1.50;;;27.90;64.40;;;;;;4918479;29;20035;-74
2022/07/09 09:27:17;;;;;;;4.13;1.80;;;27.70;65.00;;;;;;4918069;29;20032;-74
2022/07/09 09:29:50;;;;;;;7.38;1.40;;;27.80;64.30;;;;;;4918643;29;20369;-74
2022/07/09 09:32:21;;;;;;;2.85;1.20;;;28.20;64.30;;;;;;4918976;29;20054;-73
2022/07/09 09:34:50;;;;;;;6.05;1.42;;;27.70;62.80;;;;;;4916533;29;20107;-73
2022/07/09 09:37:26;;;;;;;7.07;1.80;;;28.20;63.60;;;;;;4918624;29;20048;-74
2022/07/09 09:39:51;;;;;;;5.93;1.55;;;28.60;64.20;;;;;;4916496;29;20099;-75
2022/07/09 09:42:17;;;;;;;7.00;1.58;;;28.30;63.80;;;;;;4911460;29;20119;-74
2022/07/09 09:44:44;;;;;;;7.28;1.60;;;28.90;63.50;;;;;;4925036;29;20400;-75
2022/07/09 09:47:10;;;;;;;6.20;1.50;;;29.10;61.90;;;;;;4916195;29;20519;-75
2022/07/09 09:49:41;;;;;;;3.92;1.30;;;29.00;60.80;;;;;;4915705;29;20028;-76
2022/07/09 09:52:10;;;;;;;6.60;1.80;;;29.00;59.70;;;;;;4916030;29;20088;-75
2022/07/09 09:54:37;;;;;;;4.93;1.55;;;29.00;59.70;;;;;;4916297;29;20373;-75
2022/07/09 09:57:06;;;;;;;11.38;1.83;;;29.40;59.10;;;;;;4915066;29;20436;-77
2022/07/09 09:59:35;;;;;;;4.65;1.42;;;29.50;57.70;;;;;;4907921;29;20028;-74
2022/07/09 10:02:06;;;;;;;9.77;1.70;;;29.70;58.20;;;;;;4917061;29;20141;-75
2022/07/09 10:04:33;;;;;;;3.88;1.27;;;29.90;58.30;;;;;;4918372;29;20032;-76
2022/07/09 10:06:59;;;;;;;3.28;1.40;;;29.90;58.20;;;;;;4930104;29;20043;-75
2022/07/09 10:09:26;;;;;;;4.63;1.88;;;30.00;57.10;;;;;;4917093;29;20048;-74
2022/07/09 10:11:51;;;;;;;4.13;1.50;;;30.20;56.80;;;;;;4916017;29;20092;-76
2022/07/09 10:14:39;;;;;;;6.65;1.77;;;30.20;56.60;;;;;;4915050;29;20031;-76
2022/07/09 10:17:15;;;;;;;6.65;2.10;;;30.20;57.80;;;;;;4913266;29;20040;-75
2022/07/09 10:20:04;;;;;;;4.13;1.30;;;30.20;56.00;;;;;;4917014;29;20032;-76
2022/07/09 10:22:48;;;;;;;7.70;1.30;;;30.20;56.20;;;;;;4916769;29;20032;-76
2022/07/09 10:25:27;;;;;;;2.83;1.10;;;30.30;53.90;;;;;;4915442;29;20032;-75
2022/07/09 10:27:53;;;;;;;7.25;1.33;;;30.30;53.00;;;;;;4915543;29;20388;-74
2022/07/09 10:30:26;;;;;;;3.50;1.30;;;30.40;53.10;;;;;;4915258;29;20039;-76
2022/07/09 10:33:12;;;;;;;4.32;1.30;;;30.40;53.60;;;;;;4916796;29;20027;-74
2022/07/09 10:35:49;;;;;;;4.93;1.35;;;30.60;52.80;;;;;;4916128;29;20033;-75
2022/07/09 10:38:16;;;;;;;5.03;1.38;;;30.70;52.70;;;;;;4916823;29;20032;-75
2022/07/09 10:40:47;;;;;;;3.58;1.08;;;30.70;53.00;;;;;;4916203;29;20045;-75
2022/07/09 10:43:14;;;;;;;3.63;1.50;;;30.70;51.80;;;;;;4915733;29;20028;-75
2022/07/09 10:45:41;;;;;;;3.53;1.25;;;30.80;51.40;;;;;;4916364;29;20032;-75
2022/07/09 10:48:09;;;;;;;6.82;1.50;;;30.90;52.70;;;;;;4916294;29;20048;-75
2022/07/09 10:50:40;;;;;;;5.68;1.50;;;31.10;51.50;;;;;;4914721;29;20119;-75
2022/07/09 10:53:07;;;;;;;2.80;1.30;;;31.00;51.20;;;;;;4914298;29;20043;-74
2022/07/09 10:55:33;;;;;;;5.78;1.10;;;31.10;50.90;;;;;;4912378;29;20042;-75
2022/07/09 10:57:59;;;;;;;3.92;1.50;;;30.90;50.00;;;;;;4912439;29;20040;-76
2022/07/09 11:00:28;;;;;;;3.10;1.00;;;31.10;50.40;;;;;;4909012;29;20088;-75
2022/07/09 11:03:04;;;;;;;3.78;1.30;;;31.40;49.70;;;;;;4916152;29;20484;-76
2022/07/09 11:05:32;;;;;;;2.88;1.33;;;31.40;49.20;;;;;;4901412;29;20043;-75
2022/07/09 11:08:06;;;;;;;3.03;1.35;;;31.10;49.70;;;;;;4915295;29;20027;-75
2022/07/09 11:10:35;;;;;;;2.50;1.10;;;31.10;50.00;;;;;;4910273;29;20040;-75
2022/07/09 11:13:02;;;;;;;3.90;1.15;;;31.00;49.50;;;;;;4913168;29;20424;-74
2022/07/09 11:15:33;;;;;;;2.95;1.38;;;31.30;49.30;;;;;;4921694;29;20123;-75
2022/07/09 11:18:04;;;;;;;2.03;0.93;;;31.70;49.50;;;;;;4922326;29;20020;-75
2022/07/09 11:20:50;;;;;;;5.80;1.20;;;31.80;47.80;;;;;;4908761;29;20036;-75
2022/07/09 11:23:16;;;;;;;2.65;1.23;;;32.00;48.10;;;;;;4915872;29;20389;-75
2022/07/09 11:25:43;;;;;;;4.38;1.30;;;32.10;47.80;;;;;;4921077;29;20035;-75
2022/07/09 11:28:22;;;;;;;2.38;1.13;;;31.80;47.90;;;;;;4915112;29;20032;-76
2022/07/09 11:31:04;;;;;;;2.33;1.10;;;31.70;46.60;;;;;;4915841;29;20024;-75
2022/07/09 11:36:23;;;;;;;4.55;1.40;;;31.50;47.00;;;;;;4938672;29;20051;-75
2022/07/09 11:38:53;;;;;;;4.30;1.20;;;31.80;45.10;;;;;;4931891;29;20038;-75
2022/07/09 11:41:19;;;;;;;4.20;1.10;;;31.80;46.70;;;;;;4932069;29;20040;-75
2022/07/09 11:43:51;;;;;;;4.97;1.02;;;31.80;46.60;;;;;;4932410;29;20491;-74
2022/07/09 11:46:19;;;;;;;7.53;1.63;;;31.80;46.90;;;;;;4931886;29;20538;-75
2022/07/09 11:48:54;;;;;;;4.57;1.23;;;32.10;47.20;;;;;;4932247;29;20123;-76
2022/07/09 11:51:33;;;;;;;4.97;1.10;;;32.00;45.30;;;;;;4930346;29;20081;-75
2022/07/09 11:54:00;;;;;;;3.28;1.00;;;32.30;45.80;;;;;;4931952;29;20403;-75
2022/07/09 11:56:25;;;;;;;3.67;1.15;;;32.60;45.70;;;;;;4931830;29;20035;-75
2022/07/09 11:58:52;;;;;;;3.42;1.52;;;32.40;46.10;;;;;;4928605;29;20059;-74
2022/07/09 12:01:18;;;;;;;5.00;1.00;;;32.30;45.70;;;;;;4930879;29;20071;-75
2022/07/09 12:03:50;;;;;;;3.60;1.05;;;32.30;45.40;;;;;;4935671;29;20205;-75
2022/07/09 12:06:16;;;;;;;7.15;1.27;;;32.20;44.00;;;;;;4930821;29;20044;-75
2022/07/09 12:08:42;;;;;;;3.22;1.10;;;32.10;44.10;;;;;;4931627;29;20102;-75
2022/07/09 12:11:08;;;;;;;2.33;1.13;;;32.30;44.90;;;;;;4931399;29;20103;-75
2022/07/09 12:13:33;;;;;;;4.78;1.00;;;32.30;44.50;;;;;;4919611;29;20060;-75
2022/07/09 12:15:59;;;;;;;4.65;1.30;;;32.30;44.10;;;;;;4914719;29;20024;-75
2022/07/09 12:18:25;;;;;;;3.40;1.10;;;32.40;44.00;;;;;;4915008;29;20024;-75
2022/07/09 12:20:51;;;;;;;4.88;1.30;;;32.30;44.20;;;;;;4914869;29;20032;-76
2022/07/09 12:23:16;;;;;;;4.97;1.10;;;32.40;43.80;;;;;;4914080;29;20024;-75
2022/07/09 12:25:43;;;;;;;4.95;1.13;;;32.40;44.50;;;;;;4915349;29;20027;-75
2022/07/09 12:28:09;;;;;;;2.53;1.10;;;32.30;44.00;;;;;;4914322;29;20543;-76
2022/07/09 12:30:34;;;;;;;3.47;1.20;;;32.20;44.70;;;;;;4914715;29;20023;-76
2022/07/09 12:33:00;;;;;;;4.50;1.10;;;32.20;44.50;;;;;;4914831;29;20023;-75
2022/07/09 12:35:26;;;;;;;4.53;1.10;;;32.50;43.90;;;;;;4914301;29;20087;-76
2022/07/09 12:37:52;;;;;;;2.78;1.27;;;32.60;44.70;;;;;;4914551;29;20489;-76
2022/07/09 12:40:18;;;;;;;2.50;1.00;;;32.80;43.30;;;;;;4916654;29;20058;-76
2022/07/09 12:42:44;;;;;;;3.42;1.05;;;32.80;42.50;;;;;;4918299;29;20515;-76
2022/07/09 12:45:10;;;;;;;3.97;1.20;;;32.60;42.90;;;;;;4918752;29;20036;-76
2022/07/09 12:47:36;;;;;;;3.63;1.27;;;32.40;41.90;;;;;;4919445;29;20514;-75
2022/07/09 12:50:03;;;;;;;2.45;0.90;;;32.60;41.80;;;;;;4919138;29;20501;-76
2022/07/09 12:52:32;;;;;;;4.00;1.08;;;32.70;41.80;;;;;;4918356;29;20171;-75
2022/07/09 12:55:01;;;;;;;4.18;1.10;;;32.70;40.90;;;;;;4919050;29;20023;-75
2022/07/09 12:57:27;;;;;;;2.55;1.00;;;32.80;41.30;;;;;;4918594;29;20052;-75
2022/07/09 12:59:52;;;;;;;1.58;0.80;;;32.70;42.30;;;;;;4919082;29;20403;-75
2022/07/09 13:02:18;;;;;;;2.10;0.90;;;32.60;42.60;;;;;;4918765;29;20107;-76
2022/07/09 13:04:44;;;;;;;2.15;0.75;;;32.60;41.90;;;;;;4918670;29;20032;-75
2022/07/09 13:07:09;;;;;;;3.55;1.10;;;32.50;41.90;;;;;;4918650;29;20202;-75
2022/07/09 13:09:35;;;;;;;3.72;1.10;;;32.30;41.80;;;;;;4918502;29;20062;-75
2022/07/09 13:12:01;;;;;;;1.67;0.93;;;32.50;40.60;;;;;;4918791;29;20548;-75
2022/07/09 13:14:27;;;;;;;3.78;1.00;;;32.30;41.00;;;;;;4918433;29;20025;-75
2022/07/09 13:16:52;;;;;;;7.70;1.10;;;32.70;41.60;;;;;;4918616;29;20024;-75
2022/07/09 13:19:18;;;;;;;6.80;1.13;;;32.70;40.80;;;;;;4918395;29;20036;-76
2022/07/09 13:21:43;;;;;;;1.90;1.10;;;32.60;41.90;;;;;;4917724;29;20320;-75
2022/07/09 13:24:09;;;;;;;2.47;0.90;;;32.70;41.50;;;;;;4918572;29;20040;-75
2022/07/09 13:26:35;;;;;;;3.88;1.02;;;32.20;40.30;;;;;;4918032;29;20035;-75